Indianapolis, IN

9:33 PM EST on November 22, 2014 (GMT -0500)
Speedway | Change Station
CLOSE
Current Station
Personal Weather Station
Location: Speedway, IN
Elevation: 768 ft
Nearby Weather Stations

Elev 768 ft 39.81 °N, 86.26 °W | Updated 0 second ago

Overcast
Overcast
50.5 °F
Feels Like 50.5 °F
N
0.0
Wind Variable Wind from SSW
Gusts 2.0 mph

Today
High -- | Low -- °F
--% Chance of Precip.
Yesterday
High -- | Low -- °F
Precip. -- in
7:37 AM 5:24 PM
New Moon, 0% visible
Pressure 30.01 in
Visibility 10.0 miles
Clouds Overcast 4100 ft
Dew Point 38 °F
Humidity 62%
Rainfall 0.00 in
Snow Depth Not available.
UV 0 out of 12
Pollen .10 out of 12
Air Quality Not available.
Flu Activity Not available.
METAR KIND 230154Z 18009KT 10SM -RA OVC041 12/04 A3000 RMK AO2 RAB37 SLP163 P0000 T01170044

More Conditions Fewer Conditions

Pressure 30.01 in
Visibility 10.0 miles
Clouds Overcast 4100 ft
Dew Point 38 °F
Humidity 62%
Rainfall 0.00 in
Snow Depth Not available.
UV 0 out of 12
Pollen .10 out of 12
Air Quality Not available.
Flu Activity Not available.
METAR KIND 230154Z 18009KT 10SM -RA OVC041 12/04 A3000 RMK AO2 RAB37 SLP163 P0000 T01170044

More Conditions Fewer Conditions

10-Day Weather Forecast

Almanac

Astronomy

Nov. 22, 2014 Rise Set
Actual Time
Civil Twilight
Nautical Twilight
Astronomical Twilight
Moon
Length of Visible Light
Length of Day
Tomorrow will be .
, % of the Moon is Illuminated

Today's Extremes

State Highs State Lows

Community

WunderPhotos

Upload Photos

1,772,977 photos uploaded!

WunderBlogs® & News

Nearby

Air Quality

  Air Quality AQ Index Pollutant
Not available.

Snow Depth

Station Depth Elevation

Earthquake Activity

City Distance Mag. Time & Date
Minimum magnitude displayed is 2.5.

Coastal Water Temperatures

Place Temperature

Nearby Weather Stations